Time;durP1;ratioP1;P1;durP2;ratioP2;P2;SDS_P1;SDS_P2;PMS_P1;PMS_P2;Temp;Humidity;BMP_temperature;BMP_pressure;BME280_temperature;BME280_humidity;BME280_pressure;Samples;Min_cycle;Max_cycle;Signal;HPM_P1;HPM_P2
2022/10/04 00:02:25;;;;;;;21.83;13.02;;;;;;;;;;5034994;28;20163;-64
2022/10/04 00:05:02;;;;;;;22.17;13.27;;;;;;;;;;5034606;28;20025;-64
2022/10/04 00:07:31;;;;;;;20.30;12.73;;;;;;;;;;5034747;28;20494;-64
2022/10/04 00:09:59;;;;;;;23.95;13.55;;;;;;;;;;5034732;28;20068;-64
2022/10/04 00:12:28;;;;;;;20.98;12.70;;;;;;;;;;5016902;28;20489;-64
2022/10/04 00:14:57;;;;;;;20.80;12.68;;;;;;;;;;5034682;28;20099;-64
2022/10/04 00:17:25;;;;;;;22.75;13.48;;;;;;;;;;5034949;28;20144;-64
2022/10/04 00:19:51;;;;;;;;;;;;;;;;;;5017262;28;20508;-64
2022/10/04 00:22:22;;;;;;;20.42;12.07;;;;;;;;;;5016554;28;19905;-67
2022/10/04 00:25:06;;;;;;;22.60;13.15;;;;;;;;;;5016332;28;20022;-64
2022/10/04 00:27:33;;;;;;;22.13;12.82;;;;;;;;;;5034489;28;20029;-64
2022/10/04 00:30:02;;;;;;;28.98;13.05;;;;;;;;;;5034401;28;20029;-64
2022/10/04 00:32:31;;;;;;;22.73;13.02;;;;;;;;;;5016560;28;20071;-64
2022/10/04 00:34:58;;;;;;;20.55;12.93;;;;;;;;;;5034127;28;20048;-65
2022/10/04 00:37:25;;;;;;;24.45;13.23;;;;;;;;;;5034303;28;20227;-64
2022/10/04 00:40:09;;;;;;;25.60;13.95;;;;;;;;;;5016610;28;20029;-64
2022/10/04 00:42:42;;;;;;;21.38;12.57;;;;;;;;;;5034070;28;20037;-62
2022/10/04 00:45:27;;;;;;;21.40;13.13;;;;;;;;;;5034049;28;20049;-64
2022/10/04 00:48:02;;;;;;;23.02;12.07;;;;;;;;;;5034270;28;20493;-63
2022/10/04 00:50:37;;;;;;;20.20;12.38;;;;;;;;;;5034063;28;20029;-64
2022/10/04 00:53:03;;;;;;;23.85;12.38;;;;;;;;;;5033695;28;20481;-63
2022/10/04 00:55:32;;;;;;;19.23;11.82;;;;;;;;;;5033820;28;20109;-64
2022/10/04 00:58:00;;;;;;;24.40;12.70;;;;;;;;;;5034006;28;20029;-65
2022/10/04 01:00:26;;;;;;;21.20;11.25;;;;;;;;;;5034120;28;20033;-64
2022/10/04 01:02:58;;;;;;;20.08;11.98;;;;;;;;;;5033789;28;20025;-64
2022/10/04 01:05:33;;;;;;;20.90;11.52;;;;;;;;;;5033701;28;20441;-64
2022/10/04 01:08:09;;;;;;;23.30;11.55;;;;;;;;;;5033791;28;20053;-64
2022/10/04 01:10:44;;;;;;;21.88;11.15;;;;;;;;;;5033759;28;20083;-64
2022/10/04 01:13:18;;;;;;;21.42;12.02;;;;;;;;;;5033060;28;20029;-64
2022/10/04 01:15:50;;;;;;;22.75;11.70;;;;;;;;;;5033573;28;20057;-65
2022/10/04 01:18:16;;;;;;;23.80;12.13;;;;;;;;;;5015844;28;20083;-64
2022/10/04 01:20:59;;;;;;;22.13;12.07;;;;;;;;;;5015677;28;20026;-64
2022/10/04 01:23:31;;;;;;;23.08;12.20;;;;;;;;;;5015292;28;20018;-64
2022/10/04 01:25:57;;;;;;;21.95;12.10;;;;;;;;;;5015876;28;20022;-65
2022/10/04 01:28:24;;;;;;;23.27;12.80;;;;;;;;;;5033288;28;20052;-64
2022/10/04 01:30:50;;;;;;;23.33;12.85;;;;;;;;;;5015702;28;20033;-64
2022/10/04 01:33:16;;;;;;;21.48;12.57;;;;;;;;;;5014820;28;20033;-64
2022/10/04 01:35:43;;;;;;;23.35;12.20;;;;;;;;;;5033401;28;20028;-65
2022/10/04 01:38:10;;;;;;;20.77;12.10;;;;;;;;;;5032527;28;20021;-64
2022/10/04 01:40:42;;;;;;;24.00;13.77;;;;;;;;;;5033082;28;20033;-64
2022/10/04 01:43:10;;;;;;;23.08;12.75;;;;;;;;;;5015026;28;20029;-64
2022/10/04 01:45:42;;;;;;;20.02;12.10;;;;;;;;;;5032945;28;20128;-64
2022/10/04 01:48:10;;;;;;;20.95;12.18;;;;;;;;;;5032927;28;20033;-64
2022/10/04 01:50:39;;;;;;;27.00;12.90;;;;;;;;;;5015151;28;20029;-64
2022/10/04 01:53:08;;;;;;;23.60;13.55;;;;;;;;;;5014621;28;20036;-65
2022/10/04 01:55:36;;;;;;;22.10;12.60;;;;;;;;;;5032799;28;20033;-64
2022/10/04 01:58:18;;;;;;;21.00;13.07;;;;;;;;;;5015015;28;20031;-62
2022/10/04 02:00:55;;;;;;;21.73;12.55;;;;;;;;;;5015069;28;20481;-64
2022/10/04 02:03:26;;;;;;;19.50;12.70;;;;;;;;;;5014559;28;20022;-65
2022/10/04 02:05:54;;;;;;;25.65;12.93;;;;;;;;;;5014613;28;20160;-64
2022/10/04 02:08:28;;;;;;;21.83;12.90;;;;;;;;;;5032641;28;20025;-64
2022/10/04 02:10:55;;;;;;;26.90;13.88;;;;;;;;;;5032468;28;20036;-65
2022/10/04 02:13:23;;;;;;;23.30;12.75;;;;;;;;;;5032162;28;20027;-64
2022/10/04 02:15:49;;;;;;;22.25;12.70;;;;;;;;;;5032536;28;20029;-64
2022/10/04 02:18:17;;;;;;;24.15;14.35;;;;;;;;;;5014789;28;20036;-64
2022/10/04 02:20:44;;;;;;;19.75;12.52;;;;;;;;;;5014848;28;20483;-64
2022/10/04 02:23:11;;;;;;;19.95;13.45;;;;;;;;;;5032269;28;20057;-64
2022/10/04 02:25:38;;;;;;;24.50;13.75;;;;;;;;;;5014880;28;20071;-64
2022/10/04 02:28:05;;;;;;;25.02;14.65;;;;;;;;;;5032619;28;20029;-64
2022/10/04 02:33:49;;;;;;;23.23;13.70;;;;;;;;;;5006985;28;20099;-65
2022/10/04 02:36:16;;;;;;;24.25;13.77;;;;;;;;;;5032581;28;20025;-64
2022/10/04 02:39:03;;;;;;;22.98;14.00;;;;;;;;;;5032381;28;20033;-65
2022/10/04 02:41:32;;;;;;;22.60;13.52;;;;;;;;;;5020865;28;20033;-65
2022/10/04 02:44:04;;;;;;;28.02;14.18;;;;;;;;;;5032075;28;20043;-65
2022/10/04 02:46:30;;;;;;;21.13;13.27;;;;;;;;;;5014127;28;20029;-65
2022/10/04 02:48:57;;;;;;;24.38;14.98;;;;;;;;;;5031909;28;20035;-64
2022/10/04 02:51:32;;;;;;;23.95;14.02;;;;;;;;;;5014346;28;20033;-64
2022/10/04 02:54:23;;;;;;;23.48;14.35;;;;;;;;;;5031978;28;20021;-64
2022/10/04 02:56:52;;;;;;;22.88;13.75;;;;;;;;;;5032012;28;20086;-64
2022/10/04 02:59:18;;;;;;;22.05;13.60;;;;;;;;;;5032212;28;20026;-64
2022/10/04 03:01:48;;;;;;;26.08;14.57;;;;;;;;;;5014451;28;20374;-64
2022/10/04 03:04:14;;;;;;;20.60;12.77;;;;;;;;;;5014020;28;20463;-63
2022/10/04 03:06:41;;;;;;;20.65;12.27;;;;;;;;;;5031971;28;20075;-64
2022/10/04 03:09:07;;;;;;;21.08;12.77;;;;;;;;;;5014128;28;20026;-64
2022/10/04 03:11:35;;;;;;;20.50;12.65;;;;;;;;;;5031675;28;20091;-64
2022/10/04 03:14:02;;;;;;;22.33;14.07;;;;;;;;;;5031498;28;20029;-64
2022/10/04 03:16:36;;;;;;;23.98;13.63;;;;;;;;;;5031769;28;20025;-64
2022/10/04 03:19:02;;;;;;;24.40;14.15;;;;;;;;;;5031654;28;20083;-64
2022/10/04 03:21:28;;;;;;;21.40;12.63;;;;;;;;;;5013689;28;20036;-64
2022/10/04 03:23:54;;;;;;;24.13;14.57;;;;;;;;;;5013568;28;20508;-65
2022/10/04 03:26:20;;;;;;;24.95;14.23;;;;;;;;;;5031482;28;20045;-64
2022/10/04 03:28:47;;;;;;;20.05;13.18;;;;;;;;;;5031592;28;20046;-65
2022/10/04 03:31:13;;;;;;;20.35;12.65;;;;;;;;;;5031402;28;20028;-64
2022/10/04 03:33:40;;;;;;;20.98;12.60;;;;;;;;;;5013468;28;20030;-64
2022/10/04 03:36:06;;;;;;;23.63;13.55;;;;;;;;;;5031533;28;20030;-64
2022/10/04 03:38:34;;;;;;;20.98;13.20;;;;;;;;;;5031483;28;20116;-64
2022/10/04 03:41:01;;;;;;;24.83;13.48;;;;;;;;;;5013746;28;20022;-65
2022/10/04 03:43:32;;;;;;;22.17;13.77;;;;;;;;;;5031065;28;20484;-64
2022/10/04 03:45:59;;;;;;;22.65;12.90;;;;;;;;;;5013882;28;20076;-65
2022/10/04 03:48:34;;;;;;;22.63;13.50;;;;;;;;;;5031372;28;20034;-65
2022/10/04 03:51:02;;;;;;;25.63;15.15;;;;;;;;;;5013334;28;20018;-62
2022/10/04 03:53:42;;;;;;;23.47;14.47;;;;;;;;;;5013110;28;20543;-65
2022/10/04 03:56:11;;;;;;;25.23;15.40;;;;;;;;;;5031353;28;20026;-62
2022/10/04 03:58:37;;;;;;;22.67;13.93;;;;;;;;;;5013706;28;20029;-65
2022/10/04 04:01:09;;;;;;;23.27;14.88;;;;;;;;;;5033883;28;20124;-65
2022/10/04 04:03:42;;;;;;;22.75;14.95;;;;;;;;;;5016730;28;20029;-65
2022/10/04 04:06:14;;;;;;;23.52;14.20;;;;;;;;;;5016513;28;20083;-65
2022/10/04 04:08:42;;;;;;;23.10;14.35;;;;;;;;;;5034594;28;20638;-66
2022/10/04 04:11:14;;;;;;;23.20;15.00;;;;;;;;;;5016844;28;20021;-65
2022/10/04 04:13:53;;;;;;;26.15;15.23;;;;;;;;;;5034435;28;20396;-65
2022/10/04 04:16:20;;;;;;;23.95;14.38;;;;;;;;;;5034664;28;20053;-67
2022/10/04 04:18:47;;;;;;;25.38;16.08;;;;;;;;;;5016887;28;20033;-65
2022/10/04 04:21:17;;;;;;;20.52;14.00;;;;;;;;;;5034486;28;20412;-63
2022/10/04 04:23:47;;;;;;;24.27;15.40;;;;;;;;;;5016596;28;20416;-65
2022/10/04 04:26:14;;;;;;;22.20;14.88;;;;;;;;;;5034420;28;20025;-63
2022/10/04 04:28:43;;;;;;;23.65;15.27;;;;;;;;;;5034415;28;20032;-63
2022/10/04 04:31:14;;;;;;;24.95;15.85;;;;;;;;;;5034236;28;20033;-64
2022/10/04 04:33:50;;;;;;;23.45;15.82;;;;;;;;;;5016019;28;20033;-63
2022/10/04 04:36:17;;;;;;;22.25;15.25;;;;;;;;;;5016610;28;20117;-64
2022/10/04 04:41:35;;;;;;;27.50;16.17;;;;;;;;;;5034298;28;20091;-64
2022/10/04 04:44:02;;;;;;;24.70;17.02;;;;;;;;;;5015978;28;20029;-63
2022/10/04 04:46:29;;;;;;;25.00;17.42;;;;;;;;;;5016192;28;20477;-64
2022/10/04 04:49:02;;;;;;;23.88;16.30;;;;;;;;;;5033848;28;20033;-63
2022/10/04 04:51:30;;;;;;;25.27;17.35;;;;;;;;;;5033682;28;20018;-64
2022/10/04 04:53:56;;;;;;;24.25;16.27;;;;;;;;;;5033662;28;20104;-64
2022/10/04 04:56:25;;;;;;;24.17;16.48;;;;;;;;;;5033717;28;20088;-64
2022/10/04 04:58:51;;;;;;;;;;;;;;;;;;5034000;28;20040;-64
2022/10/04 05:01:36;;;;;;;28.88;18.52;;;;;;;;;;5033573;28;19909;-63
2022/10/04 05:04:15;;;;;;;26.58;16.75;;;;;;;;;;5015494;28;20053;-64
2022/10/04 05:06:45;;;;;;;24.42;15.90;;;;;;;;;;5033311;28;20388;-63
2022/10/04 05:09:24;;;;;;;23.80;15.57;;;;;;;;;;5015500;28;20037;-64
2022/10/04 05:11:51;;;;;;;26.50;17.17;;;;;;;;;;5032175;28;20021;-63
2022/10/04 05:14:18;;;;;;;25.25;17.10;;;;;;;;;;5015314;28;20075;-64
2022/10/04 05:16:52;;;;;;;26.73;16.60;;;;;;;;;;5033489;28;20025;-63
2022/10/04 05:19:20;;;;;;;26.60;16.05;;;;;;;;;;5031254;28;20052;-64
2022/10/04 05:21:47;;;;;;;27.35;16.95;;;;;;;;;;5032750;28;20028;-63
2022/10/04 05:24:22;;;;;;;23.85;17.27;;;;;;;;;;5014766;28;20041;-63
2022/10/04 05:27:11;;;;;;;27.27;17.23;;;;;;;;;;5032726;28;20037;-63
2022/10/04 05:29:38;;;;;;;30.67;18.17;;;;;;;;;;5007636;28;20040;-65
2022/10/04 05:32:23;;;;;;;25.08;17.45;;;;;;;;;;5012635;28;20125;-64
2022/10/04 05:34:50;;;;;;;24.80;17.08;;;;;;;;;;5060454;22;20045;-64
2022/10/04 05:37:19;;;;;;;24.40;17.00;;;;;;;;;;5055674;28;20124;-66
2022/10/04 05:39:48;;;;;;;23.13;16.70;;;;;;;;;;5037622;28;20430;-64
2022/10/04 05:42:17;;;;;;;22.92;16.63;;;;;;;;;;5055834;28;20853;-65
2022/10/04 05:44:54;;;;;;;25.55;16.70;;;;;;;;;;5036794;28;20036;-65
2022/10/04 05:47:23;;;;;;;30.48;18.90;;;;;;;;;;5053931;28;20033;-66
2022/10/04 05:49:48;;;;;;;;;;;;;;;;;;5053694;28;20104;-66
2022/10/04 05:52:16;;;;;;;29.38;18.48;;;;;;;;;;5035905;28;20006;-66
2022/10/04 05:54:43;;;;;;;27.25;18.80;;;;;;;;;;5053373;28;20074;-66
2022/10/04 05:57:24;;;;;;;27.45;18.48;;;;;;;;;;5055280;28;20022;-66
2022/10/04 05:59:59;;;;;;;30.33;17.92;;;;;;;;;;5053217;28;20366;-65
2022/10/04 06:02:25;;;;;;;27.67;18.98;;;;;;;;;;5035335;28;20025;-65
2022/10/04 06:05:10;;;;;;;28.92;18.17;;;;;;;;;;5053014;28;20025;-65
2022/10/04 06:07:54;;;;;;;27.13;16.20;;;;;;;;;;5037384;28;20025;-66
2022/10/04 06:10:39;;;;;;;25.15;16.33;;;;;;;;;;5036373;28;20401;-67
2022/10/04 06:13:11;;;;;;;28.42;17.52;;;;;;;;;;5034420;28;20832;-66
2022/10/04 06:15:37;;;;;;;29.15;18.30;;;;;;;;;;5033792;28;20088;-66
2022/10/04 06:18:24;;;;;;;29.40;18.02;;;;;;;;;;5033801;28;20075;-66
2022/10/04 06:20:53;;;;;;;24.42;17.52;;;;;;;;;;5023154;28;20082;-64
2022/10/04 06:23:20;;;;;;;25.08;16.52;;;;;;;;;;5052399;28;20032;-66
2022/10/04 06:25:49;;;;;;;23.08;15.48;;;;;;;;;;5052843;28;20028;-66
2022/10/04 06:28:44;;;;;;;25.55;15.25;;;;;;;;;;5052818;28;20024;-64
2022/10/04 06:31:17;;;;;;;24.15;15.02;;;;;;;;;;5035623;28;20055;-66
2022/10/04 06:33:53;;;;;;;25.75;16.10;;;;;;;;;;5034659;28;20048;-66
2022/10/04 06:36:43;;;;;;;23.30;16.05;;;;;;;;;;5034722;28;20028;-66
2022/10/04 06:39:21;;;;;;;25.27;16.42;;;;;;;;;;5042282;28;20388;-66
2022/10/04 06:41:50;;;;;;;26.92;15.77;;;;;;;;;;5052548;28;20344;-66
2022/10/04 06:44:16;;;;;;;26.80;15.00;;;;;;;;;;5052239;28;20101;-66
2022/10/04 06:46:58;;;;;;;26.45;15.52;;;;;;;;;;5034839;28;20036;-66
2022/10/04 06:49:27;;;;;;;23.80;15.00;;;;;;;;;;5052477;28;20021;-64
2022/10/04 06:52:12;;;;;;;28.42;15.05;;;;;;;;;;5052609;28;20024;-64
2022/10/04 06:54:47;;;;;;;22.65;14.38;;;;;;;;;;5052136;28;20400;-61
2022/10/04 06:57:32;;;;;;;22.45;14.73;;;;;;;;;;5052320;28;20029;-63
2022/10/04 07:00:16;;;;;;;24.15;13.35;;;;;;;;;;5052313;28;20021;-64
2022/10/04 07:03:04;;;;;;;22.60;13.90;;;;;;;;;;5052407;28;20029;-60
2022/10/04 07:05:42;;;;;;;21.17;13.50;;;;;;;;;;5052073;28;20029;-62
2022/10/04 07:08:39;;;;;;;21.13;12.80;;;;;;;;;;5034257;28;20110;-64
2022/10/04 07:11:04;;;;;;;23.52;13.18;;;;;;;;;;5052150;28;20029;-63
2022/10/04 07:13:37;;;;;;;21.38;13.05;;;;;;;;;;5034493;28;20017;-61
2022/10/04 07:16:12;;;;;;;21.80;13.13;;;;;;;;;;5052594;28;20025;-62
2022/10/04 07:18:50;;;;;;;22.05;12.60;;;;;;;;;;5051848;28;20040;-64
2022/10/04 07:21:16;;;;;;;23.83;13.00;;;;;;;;;;5051113;28;20048;-63
2022/10/04 07:23:51;;;;;;;22.70;13.02;;;;;;;;;;5032368;28;20025;-62
2022/10/04 07:26:46;;;;;;;22.00;13.75;;;;;;;;;;5032674;28;20034;-63
2022/10/04 07:29:22;;;;;;;20.40;12.82;;;;;;;;;;4993948;28;20029;-63
2022/10/04 07:31:53;;;;;;;21.05;12.32;;;;;;;;;;5014327;28;20018;-62
2022/10/04 07:34:25;;;;;;;24.00;12.85;;;;;;;;;;5050823;28;20035;-61
2022/10/04 07:36:54;;;;;;;25.42;12.23;;;;;;;;;;5036146;28;20079;-62
2022/10/04 07:39:23;;;;;;;20.15;11.50;;;;;;;;;;5056683;28;20021;-61
2022/10/04 07:41:53;;;;;;;21.90;12.27;;;;;;;;;;5057917;28;20040;-60
2022/10/04 07:44:35;;;;;;;19.27;11.85;;;;;;;;;;5055745;28;20029;-63
2022/10/04 07:47:21;;;;;;;21.00;12.27;;;;;;;;;;5055495;28;20033;-63
2022/10/04 07:49:52;;;;;;;21.45;12.15;;;;;;;;;;5055306;28;20079;-64
2022/10/04 07:52:37;;;;;;;31.08;13.27;;;;;;;;;;5037568;28;20021;-59
2022/10/04 07:55:04;;;;;;;20.17;11.70;;;;;;;;;;5054762;28;20021;-64
2022/10/04 07:57:30;;;;;;;20.75;12.93;;;;;;;;;;5037558;28;20098;-65
2022/10/04 08:00:04;;;;;;;22.00;12.95;;;;;;;;;;5055318;28;20029;-64
2022/10/04 08:02:48;;;;;;;19.83;11.63;;;;;;;;;;5055498;28;20029;-63
2022/10/04 08:05:29;;;;;;;27.63;14.10;;;;;;;;;;5055207;28;20063;-65
2022/10/04 08:08:14;;;;;;;24.27;12.43;;;;;;;;;;5037609;28;20442;-62
2022/10/04 08:11:04;;;;;;;22.33;11.35;;;;;;;;;;5037498;28;20025;-65
2022/10/04 08:13:33;;;;;;;20.42;12.13;;;;;;;;;;5042628;28;20029;-64
2022/10/04 08:16:02;;;;;;;23.75;12.23;;;;;;;;;;5055088;28;20021;-65
2022/10/04 08:18:47;;;;;;;23.08;12.07;;;;;;;;;;5055204;28;20032;-65
2022/10/04 08:21:16;;;;;;;22.52;13.07;;;;;;;;;;5055249;28;20025;-65
2022/10/04 08:24:01;;;;;;;22.20;12.02;;;;;;;;;;5071762;28;20058;-65
2022/10/04 08:26:46;;;;;;;21.88;11.45;;;;;;;;;;5057531;28;20091;-66
2022/10/04 08:32:03;;;;;;;23.23;11.85;;;;;;;;;;5075359;28;20067;-64
2022/10/04 08:34:35;;;;;;;21.88;12.10;;;;;;;;;;5061141;28;20020;-63
2022/10/04 08:37:01;;;;;;;23.45;12.60;;;;;;;;;;5034486;28;20032;-64
2022/10/04 08:39:28;;;;;;;25.63;12.07;;;;;;;;;;5055358;28;20031;-65
2022/10/04 08:42:09;;;;;;;21.85;12.35;;;;;;;;;;5055300;28;20025;-64
2022/10/04 08:44:35;;;;;;;23.50;11.82;;;;;;;;;;5054890;28;20025;-64
2022/10/04 08:47:10;;;;;;;24.65;12.80;;;;;;;;;;5054531;28;20029;-63
2022/10/04 08:49:39;;;;;;;18.90;11.50;;;;;;;;;;5054868;28;20116;-62
2022/10/04 08:52:26;;;;;;;21.10;11.25;;;;;;;;;;5054357;28;20079;-63
2022/10/04 08:55:06;;;;;;;19.23;11.85;;;;;;;;;;5040743;28;20068;-61
2022/10/04 08:57:38;;;;;;;20.00;11.02;;;;;;;;;;5054471;28;20448;-64
2022/10/04 09:00:04;;;;;;;19.98;11.80;;;;;;;;;;5056101;28;20031;-63
2022/10/04 09:02:49;;;;;;;21.50;12.57;;;;;;;;;;5055529;28;20025;-63
2022/10/04 09:05:23;;;;;;;19.88;11.93;;;;;;;;;;5054375;28;20044;-63
2022/10/04 09:08:18;;;;;;;20.90;12.50;;;;;;;;;;5055068;28;20021;-63
2022/10/04 09:11:11;;;;;;;20.08;11.10;;;;;;;;;;5003163;28;20042;-64
2022/10/04 09:13:40;;;;;;;21.52;11.80;;;;;;;;;;5058839;28;20060;-63
2022/10/04 09:16:06;;;;;;;;;;;;;;;;;;5056823;28;20029;-65
2022/10/04 09:19:10;;;;;;;23.10;11.77;;;;;;;;;;5055006;28;20381;-63
2022/10/04 09:21:39;;;;;;;20.25;12.68;;;;;;;;;;4973356;28;20138;-65
2022/10/04 09:24:16;;;;;;;19.40;11.65;;;;;;;;;;4956756;28;20027;-62
2022/10/04 09:26:43;;;;;;;18.83;11.63;;;;;;;;;;5018679;28;20040;-62
2022/10/04 09:29:16;;;;;;;17.70;11.57;;;;;;;;;;5055493;28;20502;-63
2022/10/04 09:31:58;;;;;;;19.90;11.50;;;;;;;;;;5054054;28;20417;-60
2022/10/04 09:34:27;;;;;;;18.20;11.18;;;;;;;;;;5054433;28;20051;-64
2022/10/04 09:37:13;;;;;;;18.75;11.75;;;;;;;;;;5055846;28;20021;-63
2022/10/04 09:39:48;;;;;;;18.63;12.13;;;;;;;;;;5036480;28;20029;-65
2022/10/04 09:42:26;;;;;;;20.52;12.60;;;;;;;;;;5054130;28;20032;-64
2022/10/04 09:44:55;;;;;;;22.23;12.05;;;;;;;;;;5035399;28;20500;-63
2022/10/04 09:47:37;;;;;;;19.83;12.07;;;;;;;;;;5053694;28;20120;-63
2022/10/04 09:50:18;;;;;;;20.83;12.38;;;;;;;;;;5053217;28;20476;-64
2022/10/04 09:52:54;;;;;;;20.05;12.40;;;;;;;;;;5053533;28;20079;-63
2022/10/04 09:55:23;;;;;;;21.27;12.25;;;;;;;;;;5052923;28;20036;-63
2022/10/04 09:57:55;;;;;;;17.55;11.45;;;;;;;;;;5052967;28;20036;-63
2022/10/04 10:00:23;;;;;;;19.60;11.75;;;;;;;;;;5053190;28;20079;-62
2022/10/04 10:03:05;;;;;;;19.77;11.18;;;;;;;;;;5053446;28;20484;-63
2022/10/04 10:05:31;;;;;;;19.13;11.68;;;;;;;;;;5053008;28;20029;-64
2022/10/04 10:08:09;;;;;;;20.73;11.70;;;;;;;;;;5052972;28;20075;-63
2022/10/04 10:13:53;;;;;;;19.90;12.13;;;;;;;;;;5052777;28;20492;-62
2022/10/04 10:16:28;;;;;;;21.88;11.95;;;;;;;;;;5035056;28;20033;-63
2022/10/04 10:19:14;;;;;;;21.70;12.27;;;;;;;;;;5034991;28;20025;-62
2022/10/04 10:22:02;;;;;;;19.55;11.98;;;;;;;;;;5048232;28;20385;-60
2022/10/04 10:24:37;;;;;;;20.70;12.38;;;;;;;;;;5015000;28;20037;-63
2022/10/04 10:27:23;;;;;;;19.05;12.50;;;;;;;;;;5034076;28;20025;-65
2022/10/04 10:29:52;;;;;;;21.60;13.20;;;;;;;;;;5000393;28;20397;-64
2022/10/04 10:32:21;;;;;;;19.00;11.85;;;;;;;;;;5035501;28;20037;-65
2022/10/04 10:35:07;;;;;;;22.17;11.80;;;;;;;;;;5032526;28;20159;-65
2022/10/04 10:37:33;;;;;;;24.52;13.02;;;;;;;;;;5016132;28;20048;-66
2022/10/04 10:39:59;;;;;;;20.50;11.85;;;;;;;;;;5032639;28;20053;-65
2022/10/04 10:42:38;;;;;;;17.83;11.55;;;;;;;;;;5033318;28;20029;-68
2022/10/04 10:45:10;;;;;;;21.35;12.68;;;;;;;;;;5015399;28;20493;-65
2022/10/04 10:47:39;;;;;;;20.65;12.05;;;;;;;;;;5016062;28;20068;-63
2022/10/04 10:50:14;;;;;;;17.52;11.68;;;;;;;;;;5016027;28;20091;-64
2022/10/04 10:52:59;;;;;;;18.48;12.32;;;;;;;;;;5033789;28;20021;-65
2022/10/04 10:55:25;;;;;;;20.00;12.52;;;;;;;;;;5016242;28;20389;-64
2022/10/04 10:57:54;;;;;;;23.45;12.35;;;;;;;;;;5051616;28;20025;-65
2022/10/04 11:00:20;;;;;;;18.92;11.65;;;;;;;;;;5050992;28;20033;-65
2022/10/04 11:02:57;;;;;;;19.77;12.20;;;;;;;;;;5050516;28;20024;-65
2022/10/04 11:05:23;;;;;;;19.05;11.57;;;;;;;;;;5050921;28;20029;-63
2022/10/04 11:07:50;;;;;;;19.30;11.68;;;;;;;;;;5050652;28;20017;-63
2022/10/04 11:10:35;;;;;;;18.77;11.82;;;;;;;;;;5053960;28;20021;-62
2022/10/04 11:13:30;;;;;;;19.58;12.00;;;;;;;;;;5055951;28;20100;-63
2022/10/04 11:16:00;;;;;;;18.98;13.05;;;;;;;;;;4985595;28;20027;-63
2022/10/04 11:18:45;;;;;;;17.65;13.13;;;;;;;;;;5056551;28;20152;-63
2022/10/04 11:21:13;;;;;;;20.83;13.50;;;;;;;;;;5055841;28;20362;-63
2022/10/04 11:23:58;;;;;;;20.08;13.98;;;;;;;;;;5036413;28;20082;-63
2022/10/04 11:26:30;;;;;;;22.73;13.60;;;;;;;;;;5036079;28;20060;-63
2022/10/04 11:28:57;;;;;;;21.77;13.50;;;;;;;;;;5053361;28;20477;-62
2022/10/04 11:31:41;;;;;;;19.27;13.20;;;;;;;;;;5056324;28;20059;-63
2022/10/04 11:34:25;;;;;;;18.48;13.35;;;;;;;;;;5056221;28;20029;-64
2022/10/04 11:37:07;;;;;;;20.80;15.27;;;;;;;;;;5038201;28;20028;-63
2022/10/04 11:39:33;;;;;;;18.13;14.43;;;;;;;;;;5038199;28;20036;-63
2022/10/04 11:42:03;;;;;;;22.35;14.30;;;;;;;;;;5055636;28;20037;-64
2022/10/04 11:44:29;;;;;;;20.52;14.15;;;;;;;;;;5053990;28;20388;-64
2022/10/04 11:47:13;;;;;;;21.08;14.38;;;;;;;;;;5037175;28;20025;-63
2022/10/04 11:49:42;;;;;;;19.35;13.20;;;;;;;;;;5055510;28;20025;-65
2022/10/04 11:52:27;;;;;;;20.25;13.88;;;;;;;;;;5055223;28;20021;-61
2022/10/04 11:55:16;;;;;;;18.90;13.55;;;;;;;;;;5036666;28;20496;-63
2022/10/04 11:57:45;;;;;;;18.25;13.68;;;;;;;;;;5054938;28;20033;-63
2022/10/04 12:00:14;;;;;;;20.25;14.15;;;;;;;;;;5055834;28;20082;-63
2022/10/04 12:02:53;;;;;;;19.23;13.68;;;;;;;;;;5055618;28;20044;-63
2022/10/04 12:05:22;;;;;;;19.08;13.18;;;;;;;;;;5037190;28;20064;-64
2022/10/04 12:08:01;;;;;;;18.75;13.35;;;;;;;;;;5055834;28;20499;-64
2022/10/04 12:10:28;;;;;;;19.83;13.82;;;;;;;;;;5055569;28;20028;-63
2022/10/04 12:12:54;;;;;;;19.50;13.03;;;;;;;;;;5037263;28;20102;-63
2022/10/04 12:15:21;;;;;;;18.17;13.82;;;;;;;;;;5055174;28;20029;-61
2022/10/04 12:17:47;;;;;;;19.33;13.38;;;;;;;;;;5037268;28;20033;-62
2022/10/04 12:20:27;;;;;;;18.88;13.60;;;;;;;;;;5054833;28;20032;-63
2022/10/04 12:23:05;;;;;;;19.52;13.00;;;;;;;;;;5040743;28;20526;-63
2022/10/04 12:25:41;;;;;;;18.55;13.25;;;;;;;;;;5035389;28;20030;-63
2022/10/04 12:28:16;;;;;;;19.00;13.68;;;;;;;;;;5035191;28;20022;-62
2022/10/04 12:30:45;;;;;;;18.98;13.20;;;;;;;;;;5035215;28;20029;-64
2022/10/04 12:33:22;;;;;;;19.98;14.50;;;;;;;;;;5017146;28;20028;-63
2022/10/04 12:35:51;;;;;;;17.23;13.07;;;;;;;;;;5035251;28;20126;-64
2022/10/04 12:38:23;;;;;;;19.80;13.20;;;;;;;;;;5017666;28;20389;-63
2022/10/04 12:41:04;;;;;;;19.45;13.05;;;;;;;;;;5035109;28;20033;-62
2022/10/04 12:43:44;;;;;;;17.35;12.40;;;;;;;;;;5017436;28;20036;-63
2022/10/04 12:46:21;;;;;;;18.90;13.40;;;;;;;;;;5035170;28;20029;-63
2022/10/04 12:48:47;;;;;;;17.25;12.90;;;;;;;;;;5034945;28;20048;-63
2022/10/04 12:51:32;;;;;;;21.20;14.27;;;;;;;;;;5034720;28;20029;-64
2022/10/04 12:54:12;;;;;;;18.92;12.82;;;;;;;;;;5016779;28;20033;-63
2022/10/04 12:56:41;;;;;;;19.60;12.73;;;;;;;;;;5035115;28;20037;-64
2022/10/04 12:59:27;;;;;;;20.58;13.23;;;;;;;;;;5034841;28;20037;-65
2022/10/04 13:01:56;;;;;;;19.10;13.70;;;;;;;;;;5034264;28;20030;-64
2022/10/04 13:04:43;;;;;;;17.48;13.57;;;;;;;;;;5034473;28;20429;-65
2022/10/04 13:07:17;;;;;;;19.42;14.68;;;;;;;;;;4984575;28;20037;-64
2022/10/04 13:10:09;;;;;;;19.63;13.80;;;;;;;;;;5034565;28;20036;-60
2022/10/04 13:12:54;;;;;;;21.52;13.85;;;;;;;;;;5033708;28;20637;-67
2022/10/04 13:15:28;;;;;;;18.98;13.23;;;;;;;;;;5015967;28;20052;-66
2022/10/04 13:18:03;;;;;;;17.50;13.10;;;;;;;;;;5016333;28;20017;-65
2022/10/04 13:20:32;;;;;;;19.65;13.38;;;;;;;;;;5034023;28;20053;-63
2022/10/04 13:23:22;;;;;;;18.52;13.23;;;;;;;;;;5015835;28;20042;-64
2022/10/04 13:25:48;;;;;;;20.70;13.65;;;;;;;;;;4992998;28;20037;-63
2022/10/04 13:28:21;;;;;;;17.73;13.55;;;;;;;;;;5043288;28;20052;-62
2022/10/04 13:30:55;;;;;;;17.35;13.48;;;;;;;;;;5040404;28;20047;-60
2022/10/04 13:33:30;;;;;;;17.00;13.07;;;;;;;;;;5032720;28;20030;-63
2022/10/04 13:36:08;;;;;;;20.48;12.98;;;;;;;;;;5033797;28;20029;-63
2022/10/04 13:38:53;;;;;;;18.05;12.93;;;;;;;;;;5033464;28;20038;-64
2022/10/04 13:41:31;;;;;;;18.58;12.68;;;;;;;;;;5015887;28;20030;-64
2022/10/04 13:44:06;;;;;;;17.52;12.57;;;;;;;;;;5033814;28;20045;-64
2022/10/04 13:46:44;;;;;;;21.58;13.50;;;;;;;;;;5033398;28;20031;-64
2022/10/04 13:49:26;;;;;;;17.23;13.60;;;;;;;;;;5033827;28;20021;-64
2022/10/04 13:57:57;;;;;;;19.13;13.23;;;;;;;;;;5033765;28;20399;-62
2022/10/04 14:00:46;;;;;;;18.88;14.02;;;;;;;;;;5015559;28;20592;-65
2022/10/04 14:03:12;;;;;;;17.20;13.77;;;;;;;;;;5020288;28;20125;-63
2022/10/04 14:06:09;;;;;;;18.15;14.05;;;;;;;;;;5033218;28;20032;-64
2022/10/04 14:08:44;;;;;;;18.60;13.50;;;;;;;;;;5033035;28;20440;-62
2022/10/04 14:11:20;;;;;;;19.50;13.57;;;;;;;;;;5033654;28;20025;-64
2022/10/04 14:13:59;;;;;;;19.33;13.75;;;;;;;;;;5048692;28;20040;-65
2022/10/04 14:16:44;;;;;;;18.30;13.20;;;;;;;;;;5035197;28;20427;-65
2022/10/04 14:19:28;;;;;;;17.33;12.98;;;;;;;;;;5052921;28;20075;-65
2022/10/04 14:22:21;;;;;;;20.80;13.45;;;;;;;;;;5046450;28;20033;-62
2022/10/04 14:24:48;;;;;;;18.35;13.80;;;;;;;;;;5032390;28;20112;-68
2022/10/04 14:27:15;;;;;;;18.30;12.77;;;;;;;;;;5015160;28;20434;-65
2022/10/04 14:29:50;;;;;;;19.80;13.95;;;;;;;;;;5033041;28;20108;-64
2022/10/04 14:32:28;;;;;;;17.23;13.23;;;;;;;;;;5032805;28;20488;-64
2022/10/04 14:35:11;;;;;;;19.10;13.38;;;;;;;;;;5032203;28;20052;-63
2022/10/04 14:37:46;;;;;;;19.02;13.48;;;;;;;;;;5015144;28;20461;-64
2022/10/04 14:40:26;;;;;;;17.75;12.63;;;;;;;;;;5032378;28;20103;-63
2022/10/04 14:42:55;;;;;;;17.30;12.07;;;;;;;;;;5032237;28;20036;-64
2022/10/04 14:45:36;;;;;;;19.30;13.25;;;;;;;;;;5032620;28;20037;-65
2022/10/04 14:48:02;;;;;;;17.63;13.32;;;;;;;;;;5032510;28;20022;-65
2022/10/04 14:50:40;;;;;;;18.58;12.82;;;;;;;;;;5032919;28;20014;-66
2022/10/04 14:53:26;;;;;;;17.53;12.70;;;;;;;;;;5032092;28;20026;-64
2022/10/04 14:56:08;;;;;;;17.90;13.57;;;;;;;;;;5032125;28;20017;-65
2022/10/04 14:58:34;;;;;;;17.90;13.30;;;;;;;;;;5032332;28;20162;-67
2022/10/04 15:01:22;;;;;;;17.13;13.43;;;;;;;;;;5036682;28;20017;-65
2022/10/04 15:04:12;;;;;;;17.10;13.07;;;;;;;;;;5052000;28;20025;-64
2022/10/04 15:06:41;;;;;;;18.17;12.40;;;;;;;;;;5052574;28;20475;-64
2022/10/04 15:09:26;;;;;;;18.63;12.88;;;;;;;;;;5058202;28;20028;-65
2022/10/04 15:11:53;;;;;;;16.73;12.60;;;;;;;;;;5061973;28;20029;-64
2022/10/04 15:14:25;;;;;;;16.67;12.10;;;;;;;;;;4698374;28;9999920;-64
2022/10/04 15:16:59;;;;;;;17.50;12.30;;;;;;;;;;5043812;28;20021;-64